Rechercher aéroport 
image banner adimage banner adimage banner ad
image banner ad

43L - Van Nuys County Court

Situé à Los Angeles, United States

ICAO - 43L, IATA -

Données fournies par Airmate  

Information générale

Coordonnées: N34°10'60" W118°26'48"
Élévation : 850 feet MSL.
Variation magnétique : 14° East
Voir autres Aéroports à California

Données opérationnelles

Special qualification required
Heure actuelle UTC:
Heure actuelle locale:
Météo à : KVNY - Van Nuys ( 5 km )
METAR: KVNY 262151Z 14009KT 10SM CLR 25/18 A2993 RMK AO2 SLP127 T02500178
TAF: KVNY 261740Z 2618/2718 00000KT P6SM VCSH SCT040 OVC110 FM261900 14008KT P6SM OVC100 FM270300 VRB03KT P6SM BKN100
Voir NOTAMs / SUP AIP / TFR affectant cet aéroport [VIEW]
Fréquences de communication: [VIEW]

Pistes:

Coordonnées de l'aéroport

Adresse: Los Angeles United States

Vue satellite de 43L